Anapa, Russia
Current Conditions -  °F | °C
As of 3:00 PM on Sunday 25 Jan 2015 (Local Time) from URKA Reporting Station
Clear Clear  
Wind Chill: 54°   Ceiling: Unl
Heat Index: 54°   Visibility: 6mi
Dew Point: 45°   Wind: 11mph
Humidity: 72%   Direction: 140°SE
Pressure: 29.97"   Gusts: NA
Location:  44.89°N, 37.32°E
Report Text: URKA 251200Z 14005MPS CAVOK 12/07 Q1015 NOSIG RMK QFE757/1009SC070
Loading
Personal Weather Stations






























Interactive Weather Map New forecast layout! Learn more

10-Day Weather Forecast

Advertisements
Track Severe Weather on mobile